createdAt,value
2018-10-07T00:02:27.051Z,13.40
2018-10-07T00:07:30.217Z,13.40
2018-10-07T00:12:33.423Z,13.40
2018-10-07T00:17:36.551Z,13.40
2018-10-07T00:22:39.642Z,13.40
2018-10-07T00:27:42.796Z,13.40
2018-10-07T00:32:45.960Z,13.50
2018-10-07T00:37:49.124Z,13.40
2018-10-07T00:42:52.253Z,13.30
2018-10-07T00:47:55.399Z,13.20
2018-10-07T00:52:58.563Z,13.20
2018-10-07T00:58:01.693Z,13.10
2018-10-07T01:03:04.888Z,13.00
2018-10-07T01:08:07.977Z,13.00
2018-10-07T01:13:11.187Z,12.90
2018-10-07T01:18:14.287Z,12.90
2018-10-07T01:23:17.473Z,12.80
2018-10-07T01:28:20.651Z,12.70
2018-10-07T01:33:23.785Z,12.70
2018-10-07T01:38:26.932Z,12.60
2018-10-07T01:43:30.124Z,12.60
2018-10-07T01:48:33.344Z,12.50
2018-10-07T01:53:36.520Z,12.50
2018-10-07T01:58:39.684Z,12.50
2018-10-07T02:03:42.815Z,12.40
2018-10-07T02:08:45.933Z,12.40
2018-10-07T02:13:49.082Z,12.30
2018-10-07T02:18:52.251Z,12.30
2018-10-07T02:23:55.413Z,12.20
2018-10-07T02:28:58.598Z,12.20
2018-10-07T02:34:04.520Z,12.10
2018-10-07T02:39:12.631Z,12.10
2018-10-07T02:44:17.799Z,12.10
2018-10-07T02:49:20.920Z,12.10
2018-10-07T02:54:24.881Z,12.10
2018-10-07T02:59:27.988Z,12.00
2018-10-07T03:04:31.218Z,12.00
2018-10-07T03:09:34.347Z,12.00
2018-10-07T03:14:37.497Z,12.00
2018-10-07T03:19:40.664Z,11.90
2018-10-07T03:24:43.823Z,11.90
2018-10-07T03:29:47.147Z,11.90
2018-10-07T03:34:50.351Z,11.90
2018-10-07T03:39:53.464Z,11.90
2018-10-07T03:44:56.646Z,11.90
2018-10-07T03:49:59.769Z,11.90
2018-10-07T03:55:02.907Z,11.80
2018-10-07T04:00:06.090Z,11.80
2018-10-07T04:05:09.221Z,11.80
2018-10-07T04:10:12.353Z,11.80
2018-10-07T04:15:15.486Z,11.80
2018-10-07T04:20:18.613Z,11.80
2018-10-07T04:25:21.748Z,11.80
2018-10-07T04:30:24.899Z,11.80
2018-10-07T04:35:28.055Z,11.80
2018-10-07T04:40:31.198Z,11.70
2018-10-07T04:45:34.377Z,11.70
2018-10-07T04:50:37.554Z,11.60
2018-10-07T04:55:40.756Z,11.50
2018-10-07T05:00:43.900Z,11.50
2018-10-07T05:05:47.410Z,11.40
2018-10-07T05:10:54.655Z,11.40
2018-10-07T05:16:07.229Z,11.40
2018-10-07T05:21:10.350Z,11.40
2018-10-07T05:26:13.399Z,11.40
2018-10-07T05:31:16.568Z,11.30
2018-10-07T05:36:19.933Z,11.30
2018-10-07T05:41:23.054Z,11.30
2018-10-07T05:46:26.161Z,11.30
2018-10-07T05:51:29.328Z,11.30
2018-10-07T05:56:32.544Z,11.30
2018-10-07T06:01:37.492Z,11.40
2018-10-07T06:06:40.692Z,11.40
2018-10-07T06:11:44.413Z,11.70
2018-10-07T06:16:47.621Z,12.00
2018-10-07T06:21:50.824Z,12.30
2018-10-07T06:26:54.232Z,13.00
2018-10-07T06:31:57.365Z,14.10
2018-10-07T06:37:00.506Z,14.90
2018-10-07T06:42:03.731Z,15.60
2018-10-07T06:47:07.018Z,16.20
2018-10-07T06:52:10.183Z,16.50
2018-10-07T06:57:13.367Z,16.80
2018-10-07T07:02:16.793Z,16.80
2018-10-07T07:07:19.916Z,16.70
2018-10-07T07:12:23.197Z,16.60
2018-10-07T07:17:26.310Z,16.50
2018-10-07T07:22:29.450Z,16.50
2018-10-07T07:27:32.662Z,16.50
2018-10-07T07:32:35.781Z,16.50
2018-10-07T07:37:39.088Z,16.70
2018-10-07T07:42:42.203Z,16.80
2018-10-07T07:47:45.380Z,16.80
2018-10-07T07:52:48.518Z,16.90
2018-10-07T07:57:51.652Z,17.20
2018-10-07T08:02:54.837Z,17.50
2018-10-07T08:07:57.946Z,17.70
2018-10-07T08:13:01.110Z,17.80
2018-10-07T08:18:04.272Z,17.80
2018-10-07T08:23:07.426Z,17.80
2018-10-07T08:28:10.588Z,17.90
2018-10-07T08:33:13.759Z,18.10
2018-10-07T08:38:16.916Z,18.20
2018-10-07T08:43:20.088Z,18.40
2018-10-07T08:48:23.303Z,18.40
2018-10-07T08:53:26.483Z,18.30
2018-10-07T08:58:29.574Z,18.20
2018-10-07T09:03:32.834Z,18.20
2018-10-07T09:08:35.943Z,18.10
2018-10-07T09:13:39.105Z,18.10
2018-10-07T09:18:42.270Z,18.10
2018-10-07T09:23:45.464Z,18.20
2018-10-07T09:28:48.632Z,18.40
2018-10-07T09:33:51.821Z,18.80
2018-10-07T09:38:54.970Z,19.10
2018-10-07T09:43:58.100Z,20.00
2018-10-07T09:49:01.258Z,20.90
2018-10-07T09:54:04.448Z,20.30
2018-10-07T09:59:07.618Z,19.80
2018-10-07T10:04:10.841Z,19.40
2018-10-07T10:09:13.872Z,19.50
2018-10-07T10:14:17.026Z,20.80
2018-10-07T10:19:57.111Z,21.80
2018-10-07T10:25:39.206Z,22.30
2018-10-07T10:31:08.536Z,22.50
2018-10-07T10:36:41.234Z,22.20
2018-10-07T10:42:07.352Z,21.40
2018-10-07T10:47:26.495Z,21.60
2018-10-07T10:52:44.000Z,21.50
2018-10-07T10:57:49.443Z,21.70
2018-10-07T11:03:32.087Z,21.80
2018-10-07T11:09:04.053Z,21.50
2018-10-07T11:14:35.837Z,21.70
2018-10-07T11:19:59.176Z,22.10
2018-10-07T11:25:40.756Z,21.80
2018-10-07T11:31:02.913Z,21.00
2018-10-07T11:36:59.900Z,20.50
2018-10-07T11:42:07.361Z,19.60
2018-10-07T11:47:51.156Z,19.00
2018-10-07T11:53:12.402Z,19.50
2018-10-07T11:58:15.550Z,19.70
2018-10-07T12:03:18.756Z,20.30
2018-10-07T12:08:22.056Z,20.50
2018-10-07T12:13:25.194Z,20.40
2018-10-07T12:18:28.374Z,20.10
2018-10-07T12:23:31.520Z,20.00
2018-10-07T12:28:34.585Z,20.30
2018-10-07T12:33:38.115Z,20.20
2018-10-07T12:38:41.252Z,20.60
2018-10-07T12:43:44.400Z,20.70
2018-10-07T12:48:47.611Z,20.00
2018-10-07T12:53:50.718Z,19.60
2018-10-07T12:58:53.896Z,19.30
2018-10-07T13:03:57.049Z,18.80
2018-10-07T13:09:00.208Z,18.70
2018-10-07T13:14:03.686Z,18.50
2018-10-07T13:19:06.884Z,18.40
2018-10-07T13:24:10.068Z,18.10
2018-10-07T13:29:13.357Z,17.90
2018-10-07T13:34:16.506Z,17.70
2018-10-07T13:39:19.624Z,17.50
2018-10-07T13:44:22.829Z,17.40
2018-10-07T13:49:25.931Z,17.10
2018-10-07T13:54:29.126Z,16.90
2018-10-07T13:59:32.283Z,16.60
2018-10-07T14:04:35.402Z,16.40
2018-10-07T14:09:38.592Z,16.30
2018-10-07T14:14:41.752Z,16.20
2018-10-07T14:19:44.858Z,16.30
2018-10-07T14:24:48.077Z,16.20
2018-10-07T14:29:51.318Z,16.20
2018-10-07T14:34:54.429Z,16.20
2018-10-07T14:39:57.633Z,16.20
2018-10-07T14:45:00.786Z,16.30
2018-10-07T14:50:04.077Z,16.20
2018-10-07T14:55:07.355Z,16.30
2018-10-07T15:00:10.495Z,16.30
2018-10-07T15:05:13.637Z,16.30
2018-10-07T15:10:16.772Z,16.20
2018-10-07T15:15:20.740Z,16.20
2018-10-07T15:20:23.923Z,16.30
2018-10-07T15:25:27.097Z,16.40
2018-10-07T15:30:30.233Z,16.20
2018-10-07T15:35:33.398Z,16.10
2018-10-07T15:40:36.523Z,16.10
2018-10-07T15:45:39.670Z,15.90
2018-10-07T15:50:42.832Z,15.80
2018-10-07T15:55:45.946Z,15.80
2018-10-07T16:00:49.085Z,15.80
2018-10-07T16:05:52.254Z,15.70
2018-10-07T16:10:55.405Z,15.40
2018-10-07T16:16:01.243Z,15.10
2018-10-07T16:21:04.346Z,14.90
2018-10-07T16:26:07.729Z,14.70
2018-10-07T16:31:10.856Z,14.70
2018-10-07T16:36:13.975Z,14.50
2018-10-07T16:41:17.125Z,14.40
2018-10-07T16:46:20.291Z,14.30
2018-10-07T16:51:23.429Z,14.20
2018-10-07T16:56:26.589Z,14.10
2018-10-07T17:01:30.154Z,14.00
2018-10-07T17:06:38.583Z,13.90
2018-10-07T17:11:41.772Z,13.90
2018-10-07T17:16:48.967Z,14.00
2018-10-07T17:21:54.095Z,14.00
2018-10-07T17:26:56.134Z,14.10
2018-10-07T17:31:59.282Z,14.20
2018-10-07T17:37:02.448Z,14.10
2018-10-07T17:42:05.646Z,14.10
2018-10-07T17:47:08.836Z,14.00
2018-10-07T17:52:11.928Z,14.00
2018-10-07T17:57:15.160Z,13.90
2018-10-07T18:02:18.279Z,13.80
2018-10-07T18:07:21.505Z,13.70
2018-10-07T18:12:24.613Z,13.70
2018-10-07T18:17:27.772Z,13.60
2018-10-07T18:22:31.263Z,13.50
2018-10-07T18:27:34.415Z,13.50
2018-10-07T18:32:37.680Z,13.50
2018-10-07T18:37:40.800Z,13.40
2018-10-07T18:42:43.962Z,13.30
2018-10-07T18:47:47.199Z,13.30
2018-10-07T18:52:50.328Z,13.20
2018-10-07T18:57:53.612Z,13.20
2018-10-07T19:02:57.214Z,13.20
2018-10-07T19:08:00.252Z,13.10
2018-10-07T19:13:03.489Z,13.00
2018-10-07T19:18:06.959Z,13.00
2018-10-07T19:23:10.134Z,12.90
2018-10-07T19:28:13.303Z,13.00
2018-10-07T19:33:16.439Z,12.90
2018-10-07T19:38:19.683Z,12.90
2018-10-07T19:43:22.872Z,12.80
2018-10-07T19:48:26.049Z,12.80
2018-10-07T19:53:29.298Z,12.80
2018-10-07T19:58:32.517Z,12.70
2018-10-07T20:03:35.633Z,12.70
2018-10-07T20:08:38.933Z,12.60
2018-10-07T20:13:42.368Z,12.60
2018-10-07T20:18:45.565Z,12.60
2018-10-07T20:23:48.795Z,12.70
2018-10-07T20:28:52.047Z,12.60
2018-10-07T20:33:55.661Z,12.70
2018-10-07T20:38:58.788Z,12.60
2018-10-07T20:44:03.257Z,12.60
2018-10-07T20:49:06.509Z,12.50
2018-10-07T20:54:09.715Z,12.40
2018-10-07T20:59:12.904Z,12.40
2018-10-07T21:04:16.251Z,12.40
2018-10-07T21:09:19.398Z,12.40
2018-10-07T21:14:22.593Z,12.30
2018-10-07T21:19:25.808Z,12.20
2018-10-07T21:24:29.002Z,12.20
2018-10-07T21:29:32.169Z,12.20
2018-10-07T21:34:35.299Z,12.10
2018-10-07T21:39:38.468Z,12.20
2018-10-07T21:44:41.655Z,12.20
2018-10-07T21:49:44.805Z,12.30
2018-10-07T21:54:47.945Z,12.40
2018-10-07T21:59:51.163Z,12.30
2018-10-07T22:04:54.256Z,12.40
2018-10-07T22:09:57.402Z,12.50
2018-10-07T22:15:00.560Z,12.50
2018-10-07T22:20:03.808Z,12.40
2018-10-07T22:25:06.938Z,12.50
2018-10-07T22:30:10.081Z,12.50
2018-10-07T22:35:13.238Z,12.40
2018-10-07T22:40:16.410Z,12.40
2018-10-07T22:45:19.529Z,12.20
2018-10-07T22:50:22.701Z,12.10
2018-10-07T22:55:25.906Z,12.10
2018-10-07T23:00:29.118Z,12.00
2018-10-07T23:05:32.248Z,12.00
2018-10-07T23:10:35.370Z,11.90
2018-10-07T23:15:38.598Z,11.90
2018-10-07T23:20:41.797Z,11.90
2018-10-07T23:25:44.958Z,11.80
2018-10-07T23:30:48.115Z,11.70
2018-10-07T23:35:51.329Z,11.60
2018-10-07T23:40:55.674Z,11.50
2018-10-07T23:45:58.824Z,11.40
2018-10-07T23:51:02.017Z,11.40
2018-10-07T23:56:05.676Z,11.30
